Time,TemperatureF,DewpointF,PressureIn,WindDirection,WindDirectionDegrees,WindSpeedMPH,WindSpeedGustMPH,Humidity,HourlyPrecipIn,Conditions,Clouds,dailyrainin,SolarRadiationWatts/m^2,SoftwareType,DateUTC
2017-06-25 00:03:00,60.2,52.2,30.06,WSW,244,5.0,5.0,75,0.00,CLR,,0.00,0.0,WeatherDisplay:10.37,2017-06-25 04:03:00,
2017-06-25 00:08:00,60.1,52.1,30.06,WSW,244,4.6,4.6,75,0.00,CLR,,0.00,0.0,WeatherDisplay:10.37,2017-06-25 04:08:00,
2017-06-25 00:13:00,60.0,52.1,30.06,WSW,248,6.9,6.9,75,0.00,CLR,,0.00,0.0,WeatherDisplay:10.37,2017-06-25 04:13:00,
2017-06-25 00:18:00,60.1,52.1,30.06,WSW,244,6.9,6.9,75,0.00,CLR,,0.00,0.0,WeatherDisplay:10.37,2017-06-25 04:18:00,
2017-06-25 00:23:00,60.0,51.7,30.07,WSW,245,4.6,4.6,74,0.00,CLR,,0.00,0.0,WeatherDisplay:10.37,2017-06-25 04:23:00,
2017-06-25 00:28:00,60.0,52.1,30.07,WSW,244,3.5,3.5,75,0.00,CLR,,0.00,0.0,WeatherDisplay:10.37,2017-06-25 04:28:00,
2017-06-25 00:33:00,59.9,51.6,30.06,WSW,245,3.5,3.5,74,0.00,CLR,,0.00,0.0,WeatherDisplay:10.37,2017-06-25 04:33:00,
2017-06-25 00:38:00,59.8,51.5,30.06,WSW,245,4.6,4.6,74,0.00,CLR,,0.00,0.0,WeatherDisplay:10.37,2017-06-25 04:38:00,
2017-06-25 00:43:00,59.7,51.4,30.07,WSW,245,3.5,3.5,74,0.00,CLR,,0.00,0.0,WeatherDisplay:10.37,2017-06-25 04:43:00,
2017-06-25 00:48:00,59.6,51.7,30.07,SW,233,3.5,3.5,75,0.00,CLR,,0.00,0.0,WeatherDisplay:10.37,2017-06-25 04:48:00,
2017-06-25 00:53:00,59.4,51.8,30.07,WSW,238,4.6,4.6,76,0.00,CLR,,0.00,0.0,WeatherDisplay:10.37,2017-06-25 04:53:00,
2017-06-25 00:58:00,59.1,51.9,30.07,WSW,238,3.5,3.5,77,0.00,CLR,,0.00,0.0,WeatherDisplay:10.37,2017-06-25 04:58:00,
2017-06-25 01:03:00,58.8,52.0,30.07,WSW,238,3.5,3.5,78,0.00,CLR,,0.00,0.0,WeatherDisplay:10.37,2017-06-25 05:03:00,
2017-06-25 01:08:00,58.5,51.7,30.07,WSW,238,3.5,3.5,78,0.00,CLR,,0.00,0.0,WeatherDisplay:10.37,2017-06-25 05:08:00,
2017-06-25 01:13:00,58.3,51.8,30.07,WSW,238,4.0,4.0,79,0.00,CLR,,0.00,0.0,WeatherDisplay:10.37,2017-06-25 05:13:00,
2017-06-25 01:14:00,58.2,51.7,30.06,WSW,238,3.5,3.5,79,0.00,CLR,,0.00,0.0,WeatherDisplay:10.37,2017-06-25 05:14:00,
2017-06-25 01:19:00,58.1,51.6,30.06,WSW,238,4.6,4.6,79,0.00,CLR,,0.00,0.0,WeatherDisplay:10.37,2017-06-25 05:19:00,
2017-06-25 01:24:00,57.9,51.8,30.06,WSW,238,4.6,4.6,80,0.00,CLR,,0.00,0.0,WeatherDisplay:10.37,2017-06-25 05:24:00,
2017-06-25 01:29:00,57.7,51.6,30.06,WSW,238,3.5,3.5,80,0.00,CLR,,0.00,0.0,WeatherDisplay:10.37,2017-06-25 05:29:00,
2017-06-25 01:34:00,57.4,51.6,30.06,WSW,238,2.3,2.3,81,0.00,CLR,,0.00,0.0,WeatherDisplay:10.37,2017-06-25 05:34:00,
2017-06-25 01:39:00,57.3,51.5,30.06,WSW,238,3.5,3.5,81,0.00,CLR,,0.00,0.0,WeatherDisplay:10.37,2017-06-25 05:39:00,
2017-06-25 01:44:00,57.0,51.6,30.06,WSW,238,3.5,3.5,82,0.00,CLR,,0.00,0.0,WeatherDisplay:10.37,2017-06-25 05:44:00,
2017-06-25 01:49:00,56.9,51.5,30.06,WSW,238,3.5,3.5,82,0.00,CLR,,0.00,0.0,WeatherDisplay:10.37,2017-06-25 05:49:00,
2017-06-25 01:54:00,56.8,51.7,30.06,WSW,238,2.3,2.3,83,0.00,CLR,,0.00,0.0,WeatherDisplay:10.37,2017-06-25 05:54:00,
2017-06-25 01:59:00,56.7,51.3,30.06,WSW,238,3.5,3.5,82,0.00,CLR,,0.00,0.0,WeatherDisplay:10.37,2017-06-25 05:59:00,
2017-06-25 02:04:00,56.9,51.5,30.06,WSW,238,3.5,3.5,82,0.00,CLR,,0.00,0.0,WeatherDisplay:10.37,2017-06-25 06:04:00,
2017-06-25 02:09:00,57.1,51.7,30.06,WSW,238,3.5,3.5,82,0.00,CLR,,0.00,0.0,WeatherDisplay:10.37,2017-06-25 06:09:00,
2017-06-25 02:14:00,57.0,51.6,30.06,WSW,238,0.0,0.0,82,0.00,CLR,,0.00,0.0,WeatherDisplay:10.37,2017-06-25 06:14:00,
2017-06-25 02:19:00,57.0,51.6,30.05,WSW,238,0.0,0.0,82,0.00,CLR,,0.00,0.0,WeatherDisplay:10.37,2017-06-25 06:19:00,
2017-06-25 02:24:00,56.9,51.5,30.05,WSW,238,2.3,2.3,82,0.00,CLR,,0.00,0.0,WeatherDisplay:10.37,2017-06-25 06:24:00,
2017-06-25 02:29:00,56.7,51.6,30.05,WSW,238,3.5,3.5,83,0.00,CLR,,0.00,0.0,WeatherDisplay:10.37,2017-06-25 06:29:00,
2017-06-25 02:34:00,56.3,51.5,30.05,WSW,238,3.5,3.5,84,0.00,CLR,,0.00,0.0,WeatherDisplay:10.37,2017-06-25 06:34:00,
2017-06-25 02:39:00,56.0,51.2,30.05,WSW,238,0.0,0.0,84,0.00,CLR,,0.00,0.0,WeatherDisplay:10.37,2017-06-25 06:39:00,
2017-06-25 02:44:00,55.8,51.4,30.05,WSW,238,0.0,0.0,85,0.00,CLR,,0.00,0.0,WeatherDisplay:10.37,2017-06-25 06:44:00,
2017-06-25 02:49:00,55.8,51.4,30.04,WSW,238,0.0,0.0,85,0.00,CLR,,0.00,0.0,WeatherDisplay:10.37,2017-06-25 06:49:00,
2017-06-25 02:54:00,55.7,51.3,30.05,WSW,238,0.0,0.0,85,0.00,CLR,,0.00,0.0,WeatherDisplay:10.37,2017-06-25 06:54:00,
2017-06-25 02:55:00,55.7,51.3,30.05,WSW,238,0.0,0.0,85,0.00,CLR,,0.00,0.0,WeatherDisplay:10.37,2017-06-25 06:55:00,
2017-06-25 03:00:00,55.7,51.3,30.04,WSW,238,0.0,0.0,85,0.00,CLR,,0.00,0.0,WeatherDisplay:10.37,2017-06-25 07:00:00,
2017-06-25 03:05:00,55.7,51.3,30.04,WSW,238,0.0,0.0,85,0.00,CLR,,0.00,0.0,WeatherDisplay:10.37,2017-06-25 07:05:00,
2017-06-25 03:10:00,55.7,51.3,30.04,WSW,238,0.0,0.0,85,0.00,CLR,,0.00,0.0,WeatherDisplay:10.37,2017-06-25 07:10:00,
2017-06-25 03:15:00,55.7,50.9,30.04,WSW,238,0.0,0.0,84,0.00,CLR,,0.00,0.0,WeatherDisplay:10.37,2017-06-25 07:15:00,
2017-06-25 03:20:00,55.7,50.9,30.04,WSW,238,0.0,0.0,84,0.00,CLR,,0.00,0.0,WeatherDisplay:10.37,2017-06-25 07:20:00,
2017-06-25 03:25:00,55.7,50.6,30.04,WSW,238,0.0,0.0,83,0.00,CLR,,0.00,0.0,WeatherDisplay:10.37,2017-06-25 07:25:00,
2017-06-25 03:30:00,55.8,50.7,30.03,WSW,238,0.0,0.0,83,0.00,CLR,,0.00,0.0,WeatherDisplay:10.37,2017-06-25 07:30:00,
2017-06-25 03:35:00,55.8,50.7,30.03,WSW,238,0.0,0.0,83,0.00,CLR,,0.00,0.0,WeatherDisplay:10.37,2017-06-25 07:35:00,
2017-06-25 03:40:00,55.8,50.7,30.03,WSW,238,0.0,0.0,83,0.00,CLR,,0.00,0.0,WeatherDisplay:10.37,2017-06-25 07:40:00,
2017-06-25 03:45:00,55.7,50.6,30.03,WSW,238,0.0,0.0,83,0.00,CLR,,0.00,0.0,WeatherDisplay:10.37,2017-06-25 07:45:00,
2017-06-25 03:50:00,55.6,50.5,30.03,WSW,238,0.0,0.0,83,0.00,CLR,,0.00,0.0,WeatherDisplay:10.37,2017-06-25 07:50:00,
2017-06-25 03:55:00,55.5,50.4,30.03,WSW,238,0.0,0.0,83,0.00,CLR,,0.00,0.0,WeatherDisplay:10.37,2017-06-25 07:55:00,
2017-06-25 04:00:00,55.4,50.6,30.03,WSW,238,2.0,2.0,84,0.00,CLR,,0.00,0.0,WeatherDisplay:10.37,2017-06-25 08:00:00,
2017-06-25 04:05:00,55.4,50.6,30.03,WSW,238,3.5,3.5,84,0.00,CLR,,0.00,0.0,WeatherDisplay:10.37,2017-06-25 08:05:00,
2017-06-25 04:10:00,55.4,50.6,30.03,WSW,238,3.5,3.5,84,0.00,CLR,,0.00,0.0,WeatherDisplay:10.37,2017-06-25 08:10:00,
2017-06-25 04:15:00,55.7,50.6,30.03,WSW,238,4.0,4.0,83,0.00,CLR,,0.00,0.0,WeatherDisplay:10.37,2017-06-25 08:15:00,
2017-06-25 04:20:00,55.7,50.6,30.03,WSW,238,3.5,3.5,83,0.00,CLR,,0.00,0.0,WeatherDisplay:10.37,2017-06-25 08:20:00,
2017-06-25 04:25:00,55.7,50.6,30.03,WSW,238,3.5,3.5,83,0.00,CLR,,0.00,0.0,WeatherDisplay:10.37,2017-06-25 08:25:00,
2017-06-25 04:30:00,55.7,50.6,30.03,WSW,238,4.6,4.6,83,0.00,CLR,,0.00,0.0,WeatherDisplay:10.37,2017-06-25 08:30:00,
2017-06-25 04:35:00,55.9,50.5,30.03,WSW,238,4.6,4.6,82,0.00,CLR,,0.00,0.0,WeatherDisplay:10.37,2017-06-25 08:35:00,
2017-06-25 04:40:00,55.9,50.5,30.03,WSW,238,4.6,4.6,82,0.00,CLR,,0.00,0.0,WeatherDisplay:10.37,2017-06-25 08:40:00,
2017-06-25 04:45:00,56.0,50.3,30.03,SW,223,3.5,3.5,81,0.00,CLR,,0.00,0.0,WeatherDisplay:10.37,2017-06-25 08:45:00,
2017-06-25 04:50:00,55.9,50.5,30.03,SW,223,3.5,3.5,82,0.00,CLR,,0.00,0.0,WeatherDisplay:10.37,2017-06-25 08:50:00,
2017-06-25 04:55:00,55.7,50.3,30.03,SW,223,4.6,4.6,82,0.00,CLR,,0.00,0.0,WeatherDisplay:10.37,2017-06-25 08:55:00,
2017-06-25 05:00:00,55.7,50.3,30.03,SW,223,3.5,3.5,82,0.00,CLR,,0.00,0.0,WeatherDisplay:10.37,2017-06-25 09:00:00,
2017-06-25 05:05:00,55.6,50.2,30.02,SW,223,3.5,3.5,82,0.00,CLR,,0.00,0.0,WeatherDisplay:10.37,2017-06-25 09:05:00,
2017-06-25 05:10:00,55.7,50.3,30.02,SW,223,4.0,4.0,82,0.00,CLR,,0.00,0.0,WeatherDisplay:10.37,2017-06-25 09:10:00,
2017-06-25 05:15:00,55.8,50.4,30.03,SW,214,4.0,4.5,82,0.00,CLR,,0.00,0.0,WeatherDisplay:10.37,2017-06-25 09:15:00,
2017-06-25 05:20:00,56.1,50.3,30.03,SW,215,5.8,5.8,81,0.00,CLR,,0.00,0.0,WeatherDisplay:10.37,2017-06-25 09:20:00,
2017-06-25 05:25:00,56.4,50.3,30.02,SW,225,8.1,8.1,80,0.00,CLR,,0.00,0.0,WeatherDisplay:10.37,2017-06-25 09:25:00,
2017-06-25 05:30:00,56.8,50.4,30.03,SW,215,8.1,8.1,79,0.00,CLR,,0.00,0.0,WeatherDisplay:10.37,2017-06-25 09:30:00,
2017-06-25 05:35:00,57.2,50.4,30.03,SW,219,8.1,8.1,78,0.00,CLR,,0.00,0.0,WeatherDisplay:10.37,2017-06-25 09:35:00,
2017-06-25 05:40:00,57.1,50.0,30.03,SW,214,6.9,6.9,77,0.00,CLR,,0.00,0.0,WeatherDisplay:10.37,2017-06-25 09:40:00,
2017-06-25 05:45:00,57.2,50.1,30.03,SSW,208,6.9,6.9,77,0.00,CLR,,0.00,0.0,WeatherDisplay:10.37,2017-06-25 09:45:00,
2017-06-25 05:50:00,57.3,50.1,30.03,SSW,209,9.2,9.2,77,0.00,CLR,,0.00,0.0,WeatherDisplay:10.37,2017-06-25 09:50:00,
2017-06-25 05:55:00,57.5,50.0,30.03,SW,218,8.1,8.1,76,0.00,CLR,,0.00,0.0,WeatherDisplay:10.37,2017-06-25 09:55:00,
2017-06-25 06:00:00,57.8,50.3,30.03,SSW,211,8.1,8.1,76,0.00,CLR,,0.00,0.0,WeatherDisplay:10.37,2017-06-25 10:00:00,
2017-06-25 06:01:00,57.8,50.3,30.03,SSW,213,6.9,6.9,76,0.00,CLR,,0.00,0.0,WeatherDisplay:10.37,2017-06-25 10:01:00,
2017-06-25 06:06:00,57.7,50.2,30.03,SW,232,8.1,8.1,76,0.00,CLR,,0.00,0.0,WeatherDisplay:10.37,2017-06-25 10:06:00,
2017-06-25 06:11:00,57.7,50.2,30.03,SSW,210,8.1,8.1,76,0.00,CLR,,0.00,0.0,WeatherDisplay:10.37,2017-06-25 10:11:00,
2017-06-25 06:16:00,57.7,50.2,30.04,West,267,9.2,9.2,76,0.00,CLR,,0.00,0.0,WeatherDisplay:10.37,2017-06-25 10:16:00,
2017-06-25 06:21:00,57.4,50.2,30.04,SW,236,6.9,6.9,77,0.00,CLR,,0.00,0.0,WeatherDisplay:10.37,2017-06-25 10:21:00,
2017-06-25 06:26:00,57.1,50.0,30.04,SW,221,6.9,6.9,77,0.00,CLR,,0.00,9.0,WeatherDisplay:10.37,2017-06-25 10:26:00,
2017-06-25 06:31:00,57.0,50.2,30.05,SW,225,6.9,6.9,78,0.00,CLR,,0.00,14.0,WeatherDisplay:10.37,2017-06-25 10:31:00,
2017-06-25 06:36:00,57.1,50.0,30.05,WSW,241,11.5,11.5,77,0.00,CLR,,0.00,23.0,WeatherDisplay:10.37,2017-06-25 10:36:00,
2017-06-25 06:41:00,57.2,50.1,30.04,SW,232,9.2,9.2,77,0.00,CLR,,0.00,26.0,WeatherDisplay:10.37,2017-06-25 10:41:00,
2017-06-25 06:46:00,57.5,50.0,30.05,WSW,247,6.9,6.9,76,0.00,CLR,,0.00,32.0,WeatherDisplay:10.37,2017-06-25 10:46:00,
2017-06-25 06:51:00,57.7,50.2,30.05,WSW,237,10.4,10.4,76,0.00,CLR,,0.00,44.0,WeatherDisplay:10.37,2017-06-25 10:51:00,
2017-06-25 06:56:00,58.1,50.2,30.05,WSW,255,9.2,9.2,75,0.00,CLR,,0.00,42.0,WeatherDisplay:10.37,2017-06-25 10:56:00,
2017-06-25 07:01:00,58.0,50.1,30.06,West,272,10.4,10.4,75,0.00,CLR,,0.00,30.0,WeatherDisplay:10.37,2017-06-25 11:01:00,
2017-06-25 07:06:00,57.9,50.4,30.06,WSW,242,10.4,10.4,76,0.00,CLR,,0.00,104.0,WeatherDisplay:10.37,2017-06-25 11:06:00,
2017-06-25 07:11:00,58.5,50.2,30.06,WSW,238,11.5,11.5,74,0.00,CLR,,0.00,105.0,WeatherDisplay:10.37,2017-06-25 11:11:00,
2017-06-25 07:16:00,58.9,50.6,30.06,WSW,240,10.0,10.0,74,0.00,CLR,,0.00,118.0,WeatherDisplay:10.37,2017-06-25 11:16:00,
2017-06-25 07:21:00,59.0,50.7,30.06,WSW,256,11.5,11.5,74,0.00,CLR,,0.00,54.0,WeatherDisplay:10.37,2017-06-25 11:21:00,
2017-06-25 07:26:00,59.1,50.5,30.06,WSW,253,11.5,11.5,73,0.00,CLR,,0.00,148.0,WeatherDisplay:10.37,2017-06-25 11:26:00,
2017-06-25 07:31:00,59.1,50.5,30.07,West,264,16.1,16.1,73,0.00,CLR,,0.00,165.0,WeatherDisplay:10.37,2017-06-25 11:31:00,
2017-06-25 07:36:00,59.2,50.5,30.07,West,263,11.5,11.5,73,0.00,CLR,,0.00,181.0,WeatherDisplay:10.37,2017-06-25 11:36:00,
2017-06-25 07:41:00,59.3,50.6,30.07,WNW,297,12.7,12.7,73,0.00,CLR,,0.00,197.0,WeatherDisplay:10.37,2017-06-25 11:41:00,
2017-06-25 07:46:00,59.4,51.5,30.07,West,263,11.0,11.0,75,0.00,CLR,,0.00,214.0,WeatherDisplay:10.37,2017-06-25 11:46:00,
2017-06-25 07:51:00,59.5,51.2,30.07,WSW,251,12.7,12.7,74,0.00,CLR,,0.00,225.0,WeatherDisplay:10.37,2017-06-25 11:51:00,
2017-06-25 07:56:00,59.6,51.7,30.07,WSW,242,10.4,10.4,75,0.00,CLR,,0.00,243.0,WeatherDisplay:10.37,2017-06-25 11:56:00,
2017-06-25 08:01:00,59.8,51.5,30.07,WSW,257,11.5,11.5,74,0.00,OVC,,0.00,258.0,WeatherDisplay:10.37,2017-06-25 12:01:00,
2017-06-25 08:06:00,60.0,51.7,30.07,West,263,10.4,10.4,74,0.00,OVC,,0.00,274.0,WeatherDisplay:10.37,2017-06-25 12:06:00,
2017-06-25 08:11:00,60.1,51.8,30.07,West,281,9.2,9.2,74,0.00,OVC,,0.00,292.0,WeatherDisplay:10.37,2017-06-25 12:11:00,
2017-06-25 08:16:00,60.3,52.0,30.07,West,276,9.2,9.2,74,0.00,OVC,,0.00,308.0,WeatherDisplay:10.37,2017-06-25 12:16:00,
2017-06-25 08:21:00,60.5,51.8,30.08,WNW,295,9.2,9.2,73,0.00,OVC,,0.00,325.0,WeatherDisplay:10.37,2017-06-25 12:21:00,
2017-06-25 08:26:00,60.5,51.4,30.08,WSW,246,12.7,12.7,72,0.00,OVC,,0.00,341.0,WeatherDisplay:10.37,2017-06-25 12:26:00,
2017-06-25 08:31:00,60.5,51.4,30.08,WSW,256,12.7,12.7,72,0.00,OVC,,0.00,357.0,WeatherDisplay:10.37,2017-06-25 12:31:00,
2017-06-25 08:36:00,60.6,51.5,30.08,WSW,239,11.5,11.5,72,0.00,OVC,,0.00,371.0,WeatherDisplay:10.37,2017-06-25 12:36:00,
2017-06-25 08:41:00,60.8,51.3,30.08,West,272,9.2,9.2,71,0.00,OVC,,0.00,390.0,WeatherDisplay:10.37,2017-06-25 12:41:00,
2017-06-25 08:46:00,61.1,51.2,30.08,West,273,10.0,10.0,70,0.00,OVC,,0.00,406.0,WeatherDisplay:10.37,2017-06-25 12:46:00,
2017-06-25 08:51:00,61.2,50.9,30.08,West,274,15.0,15.0,69,0.00,OVC,,0.00,422.0,WeatherDisplay:10.37,2017-06-25 12:51:00,
2017-06-25 08:56:00,61.4,51.1,30.09,WNW,289,13.8,13.8,69,0.00,OVC,,0.00,438.0,WeatherDisplay:10.37,2017-06-25 12:56:00,
2017-06-25 09:01:00,61.7,51.8,30.09,NNW,337,9.2,9.2,70,0.00,OVC,,0.00,455.0,WeatherDisplay:10.37,2017-06-25 13:01:00,
2017-06-25 09:06:00,62.0,51.7,30.09,WNW,296,10.4,10.4,69,0.00,OVC,,0.00,469.0,WeatherDisplay:10.37,2017-06-25 13:06:00,
2017-06-25 09:11:00,62.2,51.9,30.09,WSW,256,9.2,9.2,69,0.00,OVC,,0.00,483.0,WeatherDisplay:10.37,2017-06-25 13:11:00,
2017-06-25 09:16:00,62.2,51.1,30.09,WNW,292,12.7,12.7,67,0.00,OVC,,0.00,501.0,WeatherDisplay:10.37,2017-06-25 13:16:00,
2017-06-25 09:21:00,62.2,50.7,30.09,WNW,289,12.7,12.7,66,0.00,OVC,,0.00,512.0,WeatherDisplay:10.37,2017-06-25 13:21:00,
2017-06-25 09:26:00,62.4,51.3,30.09,NW,305,10.4,10.4,67,0.00,OVC,,0.00,529.0,WeatherDisplay:10.37,2017-06-25 13:26:00,
2017-06-25 09:28:00,62.4,50.5,30.09,NNW,329,9.2,9.2,65,0.00,OVC,,0.00,534.0,WeatherDisplay:10.37,2017-06-25 13:28:00,
2017-06-25 09:33:00,62.7,49.9,30.09,NW,310,17.3,17.3,63,0.00,OVC,,0.00,548.0,WeatherDisplay:10.37,2017-06-25 13:33:00,
2017-06-25 09:38:00,62.9,50.5,30.09,West,281,9.2,9.2,64,0.00,OVC,,0.00,563.0,WeatherDisplay:10.37,2017-06-25 13:38:00,
2017-06-25 09:43:00,63.1,50.3,30.09,West,275,12.7,12.7,63,0.00,OVC,,0.00,580.0,WeatherDisplay:10.37,2017-06-25 13:43:00,
2017-06-25 09:48:00,63.1,49.4,30.09,WNW,288,11.5,11.5,61,0.00,OVC,,0.00,596.0,WeatherDisplay:10.37,2017-06-25 13:48:00,
2017-06-25 09:53:00,63.1,49.0,30.09,West,277,15.0,15.0,60,0.00,OVC,,0.00,610.0,WeatherDisplay:10.37,2017-06-25 13:53:00,
2017-06-25 09:58:00,63.1,50.3,30.09,WNW,288,13.8,13.8,63,0.00,OVC,,0.00,626.0,WeatherDisplay:10.37,2017-06-25 13:58:00,
2017-06-25 10:03:00,63.5,49.8,30.09,West,269,11.5,11.5,61,0.00,OVC,,0.00,640.0,WeatherDisplay:10.37,2017-06-25 14:03:00,
2017-06-25 10:08:00,63.9,49.7,30.09,West,262,11.5,11.5,60,0.00,OVC,,0.00,650.0,WeatherDisplay:10.37,2017-06-25 14:08:00,
2017-06-25 10:13:00,64.1,49.9,30.09,WSW,247,15.0,15.0,60,0.00,OVC,,0.00,663.0,WeatherDisplay:10.37,2017-06-25 14:13:00,